createdAt,value
2018-11-04T00:00:07.501Z,0.00
2018-11-04T00:01:07.507Z,0.00
2018-11-04T00:02:07.474Z,0.00
2018-11-04T00:03:07.460Z,0.00
2018-11-04T00:04:07.502Z,0.00
2018-11-04T00:05:07.439Z,0.00
2018-11-04T00:06:07.427Z,0.00
2018-11-04T00:07:07.416Z,0.00
2018-11-04T00:08:07.410Z,0.00
2018-11-04T00:09:07.427Z,0.00
2018-11-04T00:10:07.393Z,0.00
2018-11-04T00:11:07.371Z,0.00
2018-11-04T00:12:07.360Z,0.00
2018-11-04T00:13:07.382Z,0.00
2018-11-04T00:14:07.455Z,0.00
2018-11-04T00:15:07.327Z,0.00
2018-11-04T00:16:07.315Z,0.00
2018-11-04T00:17:07.305Z,0.00
2018-11-04T00:18:07.294Z,0.00
2018-11-04T00:19:07.330Z,0.00
2018-11-04T00:20:07.271Z,0.00
2018-11-04T00:21:07.261Z,0.00
2018-11-04T00:22:07.251Z,0.00
2018-11-04T00:23:07.262Z,0.00
2018-11-04T00:24:07.322Z,0.00
2018-11-04T00:25:07.215Z,0.00
2018-11-04T00:26:07.233Z,0.00
2018-11-04T00:27:07.199Z,0.00
2018-11-04T00:28:07.182Z,0.00
2018-11-04T00:29:07.190Z,0.00
2018-11-04T00:30:07.159Z,0.00
2018-11-04T00:31:07.181Z,0.00
2018-11-04T00:32:07.138Z,0.00
2018-11-04T00:33:07.127Z,0.00
2018-11-04T00:34:07.117Z,0.00
2018-11-04T00:35:07.103Z,0.00
2018-11-04T00:36:07.118Z,0.00
2018-11-04T00:37:07.106Z,0.00
2018-11-04T00:38:07.069Z,0.00
2018-11-04T00:39:07.059Z,0.00
2018-11-04T00:40:07.047Z,0.00
2018-11-04T00:41:07.038Z,0.00
2018-11-04T00:42:07.062Z,0.00
2018-11-04T00:43:07.013Z,0.00
2018-11-04T00:44:07.005Z,0.00
2018-11-04T00:45:07.007Z,0.00
2018-11-04T00:46:06.981Z,0.00
2018-11-04T00:47:06.995Z,0.00
2018-11-04T00:48:06.984Z,0.00
2018-11-04T00:49:06.947Z,0.00
2018-11-04T00:50:06.935Z,0.00
2018-11-04T00:51:06.926Z,0.00
2018-11-04T00:52:06.913Z,0.00
2018-11-04T00:53:06.944Z,0.00
2018-11-04T00:54:06.891Z,0.00
2018-11-04T00:55:06.879Z,0.00
2018-11-04T00:56:06.868Z,0.00
2018-11-04T00:57:06.858Z,0.00
2018-11-04T00:58:06.881Z,0.00
2018-11-04T00:59:06.834Z,0.00
2018-11-04T01:00:06.823Z,0.00
2018-11-04T01:01:06.813Z,0.00
2018-11-04T01:02:06.801Z,0.00
2018-11-04T01:03:06.807Z,0.00
2018-11-04T01:04:06.780Z,0.00
2018-11-04T01:05:06.766Z,0.00
2018-11-04T01:06:06.758Z,0.00
2018-11-04T01:07:06.769Z,0.00
2018-11-04T01:08:06.734Z,0.00
2018-11-04T01:09:06.792Z,0.00
2018-11-04T01:10:06.711Z,0.00
2018-11-04T01:11:06.726Z,0.00
2018-11-04T01:12:06.688Z,0.00
2018-11-04T01:13:06.677Z,0.00
2018-11-04T01:14:06.669Z,0.00
2018-11-04T01:15:06.681Z,0.00
2018-11-04T01:16:06.646Z,0.00
2018-11-04T01:17:06.635Z,0.00
2018-11-04T01:18:06.627Z,0.00
2018-11-04T01:19:06.612Z,0.00
2018-11-04T01:20:06.625Z,0.00
2018-11-04T01:21:06.596Z,0.00
2018-11-04T01:22:06.577Z,0.00
2018-11-04T01:23:06.565Z,0.00
2018-11-04T01:24:06.555Z,0.00
2018-11-04T01:25:06.574Z,0.00
2018-11-04T01:26:06.531Z,0.00
2018-11-04T01:27:06.551Z,0.00
2018-11-04T01:28:06.509Z,0.00
2018-11-04T01:29:06.507Z,0.00
2018-11-04T01:30:06.501Z,0.00
2018-11-04T01:31:06.500Z,0.00
2018-11-04T01:32:06.503Z,0.00
2018-11-04T01:33:06.456Z,0.00
2018-11-04T01:34:06.443Z,0.00
2018-11-04T01:35:06.433Z,0.00
2018-11-04T01:36:06.421Z,0.00
2018-11-04T01:37:06.435Z,0.00
2018-11-04T01:38:06.422Z,0.00
2018-11-04T01:39:06.388Z,0.00
2018-11-04T01:40:06.384Z,0.00
2018-11-04T01:41:06.366Z,0.00
2018-11-04T01:42:06.353Z,0.00
2018-11-04T01:43:06.369Z,0.00
2018-11-04T01:44:06.354Z,0.00
2018-11-04T01:45:06.323Z,0.00
2018-11-04T01:46:06.333Z,0.00
2018-11-04T01:47:06.297Z,0.00
2018-11-04T01:48:06.284Z,0.00
2018-11-04T01:49:06.275Z,0.00
2018-11-04T01:50:06.264Z,0.00
2018-11-04T01:51:06.280Z,0.00
2018-11-04T01:52:06.240Z,0.00
2018-11-04T01:53:06.230Z,0.00
2018-11-04T01:54:06.218Z,0.00
2018-11-04T01:55:06.208Z,0.00
2018-11-04T01:56:06.221Z,0.00
2018-11-04T01:57:06.184Z,0.00
2018-11-04T01:58:06.179Z,0.00
2018-11-04T01:59:06.167Z,0.00
2018-11-04T02:00:06.152Z,0.00
2018-11-04T02:01:06.163Z,0.00
2018-11-04T02:02:06.130Z,0.00
2018-11-04T02:03:06.119Z,0.00
2018-11-04T02:04:06.108Z,0.00
2018-11-04T02:05:06.135Z,0.00
2018-11-04T02:06:06.085Z,0.00
2018-11-04T02:07:06.071Z,0.00
2018-11-04T02:08:06.061Z,0.00
2018-11-04T02:09:06.050Z,0.00
2018-11-04T02:10:06.078Z,0.00
2018-11-04T02:11:06.028Z,0.00
2018-11-04T02:12:06.017Z,0.00
2018-11-04T02:13:06.004Z,0.00
2018-11-04T02:14:05.995Z,0.00
2018-11-04T02:15:06.007Z,0.00
2018-11-04T02:16:05.972Z,0.00
2018-11-04T02:17:05.959Z,0.00
2018-11-04T02:18:05.949Z,0.00
2018-11-04T02:19:05.963Z,0.00
2018-11-04T02:20:05.927Z,0.00
2018-11-04T02:21:05.914Z,0.00
2018-11-04T02:22:05.930Z,0.00
2018-11-04T02:23:05.893Z,0.00
2018-11-04T02:24:05.883Z,0.00
2018-11-04T02:25:05.871Z,0.00
2018-11-04T02:26:05.885Z,0.00
2018-11-04T02:27:05.848Z,0.00
2018-11-04T02:28:05.836Z,0.00
2018-11-04T02:29:05.826Z,0.00
2018-11-04T02:30:05.816Z,0.00
2018-11-04T02:31:05.835Z,0.00
2018-11-04T02:32:05.800Z,0.00
2018-11-04T02:33:05.780Z,0.00
2018-11-04T02:34:05.769Z,0.00
2018-11-04T02:35:05.759Z,0.00
2018-11-04T02:36:05.773Z,0.00
2018-11-04T02:37:05.736Z,0.00
2018-11-04T02:38:05.726Z,0.00
2018-11-04T02:39:05.738Z,0.00
2018-11-04T02:40:05.703Z,0.00
2018-11-04T02:41:05.690Z,0.00
2018-11-04T02:42:05.681Z,0.00
2018-11-04T02:43:05.668Z,0.00
2018-11-04T02:44:05.696Z,0.00
2018-11-04T02:45:05.647Z,0.00
2018-11-04T02:46:05.636Z,0.00
2018-11-04T02:47:05.790Z,0.00
2018-11-04T02:48:05.613Z,0.00
2018-11-04T02:49:05.636Z,0.00
2018-11-04T02:50:05.591Z,0.00
2018-11-04T02:51:05.581Z,0.00
2018-11-04T02:52:05.574Z,0.00
2018-11-04T02:53:05.560Z,0.00
2018-11-04T02:54:05.569Z,0.00
2018-11-04T02:55:05.537Z,0.00
2018-11-04T02:56:05.523Z,0.00
2018-11-04T02:57:05.538Z,0.00
2018-11-04T02:58:05.528Z,0.00
2018-11-04T02:59:05.491Z,0.00
2018-11-04T03:00:05.485Z,0.00
2018-11-04T03:01:05.468Z,0.00
2018-11-04T03:02:05.609Z,0.00
2018-11-04T03:03:05.469Z,0.00
2018-11-04T03:04:05.435Z,0.00
2018-11-04T03:05:05.423Z,0.00
2018-11-04T03:06:05.427Z,0.00
2018-11-04T03:07:05.401Z,0.00
2018-11-04T03:08:05.421Z,0.00
2018-11-04T03:09:05.379Z,0.00
2018-11-04T03:10:05.367Z,0.00
2018-11-04T03:11:05.356Z,0.00
2018-11-04T03:12:05.347Z,0.00
2018-11-04T03:13:05.358Z,0.00
2018-11-04T03:14:05.322Z,0.00
2018-11-04T03:15:05.311Z,0.00
2018-11-04T03:16:05.315Z,0.00
2018-11-04T03:17:05.288Z,0.00
2018-11-04T03:18:05.311Z,0.00
2018-11-04T03:19:05.267Z,0.00
2018-11-04T03:20:05.256Z,0.00
2018-11-04T03:21:05.245Z,0.00
2018-11-04T03:22:05.234Z,0.00
2018-11-04T03:23:05.247Z,0.00
2018-11-04T03:24:05.244Z,0.00
2018-11-04T03:25:05.204Z,0.00
2018-11-04T03:26:05.188Z,0.00
2018-11-04T03:27:05.181Z,0.00
2018-11-04T03:28:05.166Z,0.00
2018-11-04T03:29:05.181Z,0.00
2018-11-04T03:30:05.143Z,0.00
2018-11-04T03:31:05.132Z,0.00
2018-11-04T03:32:05.123Z,0.00
2018-11-04T03:33:05.110Z,0.00
2018-11-04T03:34:05.122Z,0.00
2018-11-04T03:35:05.088Z,0.00
2018-11-04T03:36:05.080Z,0.00
2018-11-04T03:37:05.096Z,0.00
2018-11-04T03:38:05.057Z,0.00
2018-11-04T03:39:05.042Z,0.00
2018-11-04T03:40:05.031Z,0.00
2018-11-04T03:41:05.020Z,0.00
2018-11-04T03:42:05.033Z,0.00
2018-11-04T03:43:04.999Z,0.00
2018-11-04T03:44:04.988Z,0.00
2018-11-04T03:45:04.999Z,0.00
2018-11-04T03:46:04.972Z,0.00
2018-11-04T03:47:04.952Z,0.00
2018-11-04T03:48:04.983Z,0.00
2018-11-04T03:49:04.932Z,0.00
2018-11-04T03:50:04.919Z,0.00
2018-11-04T03:51:04.908Z,0.00
2018-11-04T03:52:04.897Z,0.00
2018-11-04T03:53:04.913Z,0.00
2018-11-04T03:54:04.878Z,0.00
2018-11-04T03:55:04.895Z,0.00
2018-11-04T03:56:04.852Z,0.00
2018-11-04T03:57:04.843Z,0.00
2018-11-04T03:58:04.832Z,0.00
2018-11-04T03:59:04.819Z,0.00
2018-11-04T04:00:04.833Z,0.00
2018-11-04T04:01:04.800Z,0.00
2018-11-04T04:02:04.787Z,0.00
2018-11-04T04:03:04.775Z,0.00
2018-11-04T04:04:04.769Z,0.00
2018-11-04T04:05:04.777Z,0.00
2018-11-04T04:06:04.774Z,0.00
2018-11-04T04:07:04.733Z,0.00
2018-11-04T04:08:04.720Z,0.00
2018-11-04T04:09:04.714Z,0.00
2018-11-04T04:10:04.699Z,0.00
2018-11-04T04:11:04.774Z,0.00
2018-11-04T04:12:04.677Z,0.00
2018-11-04T04:13:04.664Z,0.00
2018-11-04T04:14:04.651Z,0.00
2018-11-04T04:15:04.640Z,0.00
2018-11-04T04:16:04.660Z,0.00
2018-11-04T04:17:04.618Z,0.00
2018-11-04T04:18:04.610Z,0.00
2018-11-04T04:19:04.596Z,0.00
2018-11-04T04:20:04.585Z,0.00
2018-11-04T04:21:04.606Z,0.00
2018-11-04T04:22:04.562Z,0.00
2018-11-04T04:23:04.550Z,0.00
2018-11-04T04:24:04.539Z,0.00
2018-11-04T04:25:04.528Z,0.00
2018-11-04T04:26:04.549Z,0.00
2018-11-04T04:27:04.511Z,0.00
2018-11-04T04:28:04.495Z,0.00
2018-11-04T04:29:04.484Z,0.00
2018-11-04T04:30:04.472Z,0.00
2018-11-04T04:31:04.489Z,0.00
2018-11-04T04:32:04.476Z,0.00
2018-11-04T04:33:04.440Z,0.00
2018-11-04T04:34:04.428Z,0.00
2018-11-04T04:35:04.417Z,0.00
2018-11-04T04:36:04.407Z,0.00
2018-11-04T04:37:04.419Z,0.00
2018-11-04T04:38:04.383Z,0.00
2018-11-04T04:39:04.373Z,0.00
2018-11-04T04:40:04.362Z,0.00
2018-11-04T04:41:04.375Z,0.00
2018-11-04T04:42:04.368Z,0.00
2018-11-04T04:43:04.328Z,0.00
2018-11-04T04:44:04.318Z,0.00
2018-11-04T04:45:04.306Z,0.00
2018-11-04T04:46:04.320Z,0.00
2018-11-04T04:47:04.284Z,0.00
2018-11-04T04:48:04.271Z,0.00
2018-11-04T04:49:04.260Z,0.00
2018-11-04T04:50:04.248Z,0.00
2018-11-04T04:51:04.272Z,0.00
2018-11-04T04:52:04.227Z,0.00
2018-11-04T04:53:04.215Z,0.00
2018-11-04T04:54:04.204Z,0.00
2018-11-04T04:55:04.192Z,0.00
2018-11-04T04:56:04.215Z,0.00
2018-11-04T04:57:04.170Z,0.00
2018-11-04T04:58:04.159Z,0.00
2018-11-04T04:59:04.149Z,0.00
2018-11-04T05:00:04.137Z,0.00
2018-11-04T05:01:04.168Z,0.00
2018-11-04T05:02:04.116Z,0.00
2018-11-04T05:03:04.107Z,0.00
2018-11-04T05:04:04.093Z,0.00
2018-11-04T05:05:04.081Z,0.00
2018-11-04T05:06:04.095Z,0.00
2018-11-04T05:07:04.058Z,0.00
2018-11-04T05:08:04.071Z,0.00
2018-11-04T05:09:04.063Z,0.00
2018-11-04T05:10:04.053Z,0.00
2018-11-04T05:11:04.015Z,0.00
2018-11-04T05:12:04.005Z,0.00
2018-11-04T05:13:04.019Z,0.00
2018-11-04T05:14:03.980Z,0.00
2018-11-04T05:15:03.995Z,0.00
2018-11-04T05:16:03.961Z,0.00
2018-11-04T05:17:03.949Z,0.00
2018-11-04T05:18:03.937Z,0.00
2018-11-04T05:19:03.927Z,0.00
2018-11-04T05:20:03.938Z,0.00
2018-11-04T05:21:03.932Z,0.00
2018-11-04T05:22:03.898Z,0.00
2018-11-04T05:23:03.881Z,0.00
2018-11-04T05:24:03.869Z,0.00
2018-11-04T05:25:03.884Z,0.00
2018-11-04T05:26:03.850Z,0.00
2018-11-04T05:27:03.838Z,0.00
2018-11-04T05:28:03.825Z,0.00
2018-11-04T05:29:03.837Z,0.00
2018-11-04T05:30:03.804Z,0.00
2018-11-04T05:31:03.792Z,0.00
2018-11-04T05:32:03.785Z,0.00
2018-11-04T05:33:03.769Z,0.00
2018-11-04T05:34:03.782Z,0.00
2018-11-04T05:35:03.753Z,0.00
2018-11-04T05:36:03.736Z,0.00
2018-11-04T05:37:03.725Z,0.00
2018-11-04T05:38:03.797Z,0.00
2018-11-04T05:39:03.729Z,0.00
2018-11-04T05:40:03.691Z,0.00
2018-11-04T05:41:03.679Z,0.00
2018-11-04T05:42:03.669Z,0.00
2018-11-04T05:43:03.659Z,0.00
2018-11-04T05:44:03.670Z,0.00
2018-11-04T05:45:03.636Z,0.00
2018-11-04T05:46:03.625Z,0.00
2018-11-04T05:47:03.615Z,0.00
2018-11-04T05:48:03.603Z,0.00
2018-11-04T05:49:03.618Z,0.00
2018-11-04T05:50:03.582Z,0.00
2018-11-04T05:51:03.569Z,0.00
2018-11-04T05:52:03.557Z,0.00
2018-11-04T05:53:03.545Z,0.00
2018-11-04T05:54:03.563Z,0.00
2018-11-04T05:55:03.525Z,0.00
2018-11-04T05:56:03.516Z,0.00
2018-11-04T05:57:03.502Z,0.00
2018-11-04T05:58:03.492Z,0.00
2018-11-04T05:59:03.504Z,0.00
2018-11-04T06:00:03.470Z,0.00
2018-11-04T06:01:03.480Z,0.00
2018-11-04T06:02:03.448Z,0.00
2018-11-04T06:03:03.434Z,0.00
2018-11-04T06:04:03.426Z,0.00
2018-11-04T06:05:03.412Z,0.00
2018-11-04T06:06:03.428Z,0.00
2018-11-04T06:07:03.391Z,0.00
2018-11-04T06:08:03.408Z,0.00
2018-11-04T06:09:03.369Z,0.00
2018-11-04T06:10:03.357Z,0.00
2018-11-04T06:11:03.371Z,0.00
2018-11-04T06:12:03.336Z,0.00
2018-11-04T06:13:03.322Z,0.00
2018-11-04T06:14:03.336Z,0.00
2018-11-04T06:15:03.329Z,0.00
2018-11-04T06:16:03.289Z,0.00
2018-11-04T06:17:03.281Z,0.00
2018-11-04T06:18:03.269Z,0.00
2018-11-04T06:19:03.257Z,0.00
2018-11-04T06:20:03.282Z,4.00
2018-11-04T06:21:03.235Z,4.00
2018-11-04T06:22:03.222Z,4.00
2018-11-04T06:23:03.210Z,4.00
2018-11-04T06:24:03.203Z,4.00
2018-11-04T06:25:03.232Z,4.00
2018-11-04T06:26:03.178Z,4.00
2018-11-04T06:27:03.165Z,0.00
2018-11-04T06:28:03.156Z,0.00
2018-11-04T06:29:03.146Z,0.00
2018-11-04T06:30:03.157Z,4.00
2018-11-04T06:31:03.155Z,4.00
2018-11-04T06:32:03.111Z,4.00
2018-11-04T06:33:03.099Z,4.00
2018-11-04T06:34:03.090Z,4.00
2018-11-04T06:35:03.081Z,4.00
2018-11-04T06:36:03.093Z,4.00
2018-11-04T06:37:03.057Z,8.00
2018-11-04T06:38:03.045Z,4.00
2018-11-04T06:39:03.032Z,4.00
2018-11-04T06:40:03.022Z,4.00
2018-11-04T06:41:03.076Z,4.00
2018-11-04T06:42:02.999Z,8.00
2018-11-04T06:43:02.996Z,4.00
2018-11-04T06:44:03.003Z,8.00
2018-11-04T06:45:02.969Z,8.00
2018-11-04T06:46:02.955Z,8.00
2018-11-04T06:47:02.963Z,8.00
2018-11-04T06:48:02.932Z,8.00
2018-11-04T06:49:02.947Z,12.00
2018-11-04T06:50:02.909Z,8.00
2018-11-04T06:51:02.899Z,8.00
2018-11-04T06:52:02.911Z,8.00
2018-11-04T06:53:02.875Z,8.00
2018-11-04T06:54:02.866Z,12.00
2018-11-04T06:55:02.854Z,12.00
2018-11-04T06:56:02.843Z,12.00
2018-11-04T06:57:02.856Z,12.00
2018-11-04T06:58:02.847Z,12.00
2018-11-04T06:59:02.810Z,12.00
2018-11-04T07:00:02.854Z,12.00
2018-11-04T07:01:02.787Z,12.00
2018-11-04T07:02:02.775Z,12.00
2018-11-04T07:03:02.791Z,16.00
2018-11-04T07:04:02.753Z,12.00
2018-11-04T07:05:02.743Z,12.00
2018-11-04T07:06:02.730Z,16.00
2018-11-04T07:07:02.720Z,20.00
2018-11-04T07:08:02.732Z,20.00
2018-11-04T07:09:02.792Z,24.00
2018-11-04T07:10:02.719Z,20.00
2018-11-04T07:11:02.674Z,20.00
2018-11-04T07:12:02.666Z,24.00
2018-11-04T07:13:02.653Z,24.00
2018-11-04T07:14:02.643Z,24.00
2018-11-04T07:15:02.664Z,24.00
2018-11-04T07:16:02.634Z,28.00
2018-11-04T07:17:02.608Z,28.00
2018-11-04T07:18:02.598Z,28.00
2018-11-04T07:19:02.587Z,28.00
2018-11-04T07:20:02.724Z,28.00
2018-11-04T07:21:02.563Z,32.00
2018-11-04T07:22:02.555Z,36.00
2018-11-04T07:23:02.542Z,36.00
2018-11-04T07:24:02.530Z,36.00
2018-11-04T07:25:02.544Z,36.00
2018-11-04T07:26:02.511Z,36.00
2018-11-04T07:27:02.497Z,36.00
2018-11-04T07:28:02.487Z,36.00
2018-11-04T07:29:02.475Z,40.00
2018-11-04T07:30:02.496Z,40.00
2018-11-04T07:31:02.451Z,40.00
2018-11-04T07:32:02.510Z,44.00
2018-11-04T07:33:02.429Z,44.00
2018-11-04T07:34:02.417Z,44.00
2018-11-04T07:35:02.432Z,44.00
2018-11-04T07:36:02.396Z,48.00
2018-11-04T07:37:02.384Z,48.00
2018-11-04T07:38:02.384Z,48.00
2018-11-04T07:39:02.362Z,52.00
2018-11-04T07:40:02.379Z,48.00
2018-11-04T07:41:02.340Z,48.00
2018-11-04T07:42:02.328Z,52.00
2018-11-04T07:43:02.319Z,56.00
2018-11-04T07:44:02.311Z,56.00
2018-11-04T07:45:02.319Z,56.00
2018-11-04T07:46:02.285Z,60.00
2018-11-04T07:47:02.298Z,60.00
2018-11-04T07:48:02.262Z,56.00
2018-11-04T07:49:02.251Z,56.00
2018-11-04T07:50:02.272Z,56.00
2018-11-04T07:51:02.236Z,60.00
2018-11-04T07:52:02.220Z,56.00
2018-11-04T07:53:02.208Z,60.00
2018-11-04T07:54:02.195Z,60.00
2018-11-04T07:55:02.217Z,64.00
2018-11-04T07:56:02.173Z,60.00
2018-11-04T07:57:02.260Z,64.00
2018-11-04T07:58:02.149Z,68.00
2018-11-04T07:59:02.141Z,64.00
2018-11-04T08:00:02.153Z,68.00
2018-11-04T08:01:02.285Z,72.00
2018-11-04T08:02:02.106Z,72.00
2018-11-04T08:03:02.097Z,80.00
2018-11-04T08:04:02.216Z,80.00
2018-11-04T08:05:02.073Z,84.00
2018-11-04T08:06:02.061Z,84.00
2018-11-04T08:07:02.051Z,84.00
2018-11-04T08:08:02.038Z,84.00
2018-11-04T08:09:02.057Z,84.00
2018-11-04T08:10:02.018Z,96.00
2018-11-04T08:11:02.008Z,100.00
2018-11-04T08:12:01.995Z,100.00
2018-11-04T08:13:01.982Z,100.00
2018-11-04T08:14:02.012Z,104.00
2018-11-04T08:15:01.960Z,104.00
2018-11-04T08:16:01.948Z,108.00
2018-11-04T08:17:01.941Z,108.00
2018-11-04T08:18:01.933Z,108.00
2018-11-04T08:19:01.940Z,100.00
2018-11-04T08:20:01.905Z,96.00
2018-11-04T08:21:01.894Z,96.00
2018-11-04T08:22:01.885Z,100.00
2018-11-04T08:23:01.903Z,100.00
2018-11-04T08:24:01.859Z,96.00
2018-11-04T08:25:01.848Z,96.00
2018-11-04T08:26:01.837Z,96.00
2018-11-04T08:27:01.826Z,100.00
2018-11-04T08:28:01.847Z,104.00
2018-11-04T08:29:01.805Z,108.00
2018-11-04T08:30:01.791Z,112.00
2018-11-04T08:31:01.781Z,112.00
2018-11-04T08:32:01.770Z,112.00
2018-11-04T08:33:01.791Z,112.00
2018-11-04T08:34:01.750Z,116.00
2018-11-04T08:35:01.741Z,116.00
2018-11-04T08:36:01.725Z,124.00
2018-11-04T08:37:01.715Z,132.00
2018-11-04T08:38:01.730Z,136.00
2018-11-04T08:39:01.696Z,132.00
2018-11-04T08:40:01.817Z,128.00
2018-11-04T08:41:01.694Z,128.00
2018-11-04T08:42:01.661Z,124.00
2018-11-04T08:43:01.648Z,124.00
2018-11-04T08:44:01.635Z,128.00
2018-11-04T08:45:01.627Z,136.00
2018-11-04T08:46:01.639Z,140.00
2018-11-04T08:47:01.602Z,144.00
2018-11-04T08:48:01.591Z,148.00
2018-11-04T08:49:01.582Z,152.00
2018-11-04T08:50:01.569Z,152.00
2018-11-04T08:51:01.586Z,148.00
2018-11-04T08:52:01.548Z,144.00
2018-11-04T08:53:01.537Z,144.00
2018-11-04T08:54:01.548Z,144.00
2018-11-04T08:55:01.516Z,148.00
2018-11-04T08:56:01.505Z,148.00
2018-11-04T08:57:01.491Z,148.00
2018-11-04T08:58:01.480Z,152.00
2018-11-04T08:59:01.495Z,152.00
2018-11-04T09:00:01.557Z,148.00
2018-11-04T09:01:01.447Z,152.00
2018-11-04T09:02:01.435Z,152.00
2018-11-04T09:03:01.423Z,156.00
2018-11-04T09:04:01.439Z,160.00
2018-11-04T09:05:01.403Z,168.00
2018-11-04T09:06:01.392Z,160.00
2018-11-04T09:07:01.380Z,156.00
2018-11-04T09:08:01.367Z,152.00
2018-11-04T09:09:01.381Z,152.00
2018-11-04T09:10:01.346Z,156.00
2018-11-04T09:11:01.335Z,152.00
2018-11-04T09:12:01.323Z,148.00
2018-11-04T09:13:01.311Z,148.00
2018-11-04T09:14:01.384Z,148.00
2018-11-04T09:15:01.290Z,152.00
2018-11-04T09:16:01.279Z,156.00
2018-11-04T09:17:01.266Z,164.00
2018-11-04T09:18:01.279Z,168.00
2018-11-04T09:19:01.247Z,172.00
2018-11-04T09:20:01.232Z,176.00
2018-11-04T09:21:01.222Z,172.00
2018-11-04T09:22:01.421Z,164.00
2018-11-04T09:23:01.222Z,156.00
2018-11-04T09:24:01.189Z,152.00
2018-11-04T09:25:01.181Z,152.00
2018-11-04T09:26:01.166Z,152.00
2018-11-04T09:27:01.156Z,152.00
2018-11-04T09:28:01.178Z,148.00
2018-11-04T09:29:01.200Z,140.00
2018-11-04T09:30:01.123Z,140.00
2018-11-04T09:31:01.111Z,136.00
2018-11-04T09:32:01.100Z,140.00
2018-11-04T09:33:01.131Z,144.00
2018-11-04T09:34:01.080Z,148.00
2018-11-04T09:35:01.210Z,152.00
2018-11-04T09:36:01.193Z,156.00
2018-11-04T09:37:01.042Z,156.00
2018-11-04T09:38:01.055Z,156.00
2018-11-04T09:39:01.045Z,156.00
2018-11-04T09:40:01.011Z,152.00
2018-11-04T09:41:00.997Z,168.00
2018-11-04T09:42:00.987Z,176.00
2018-11-04T09:43:00.975Z,176.00
2018-11-04T09:44:00.990Z,172.00
2018-11-04T09:45:00.953Z,168.00
2018-11-04T09:46:00.945Z,164.00
2018-11-04T09:47:00.933Z,160.00
2018-11-04T09:48:00.920Z,160.00
2018-11-04T09:49:00.944Z,160.00
2018-11-04T09:50:00.911Z,160.00
2018-11-04T09:51:00.887Z,160.00
2018-11-04T09:52:00.877Z,172.00
2018-11-04T09:53:00.864Z,176.00
2018-11-04T09:54:00.878Z,184.00
2018-11-04T09:55:00.867Z,180.00
2018-11-04T09:56:00.833Z,192.00
2018-11-04T09:57:00.821Z,192.00
2018-11-04T09:58:00.810Z,196.00
2018-11-04T09:59:00.797Z,196.00
2018-11-04T10:00:00.817Z,192.00
2018-11-04T10:01:00.776Z,192.00
2018-11-04T10:02:00.764Z,192.00
2018-11-04T10:03:00.752Z,192.00
2018-11-04T10:04:00.744Z,196.00
2018-11-04T10:05:00.754Z,196.00
2018-11-04T10:06:00.718Z,196.00
2018-11-04T10:07:00.792Z,200.00
2018-11-04T10:08:00.698Z,208.00
2018-11-04T10:09:00.684Z,212.00
2018-11-04T10:10:00.674Z,208.00
2018-11-04T10:11:00.662Z,204.00
2018-11-04T10:12:00.678Z,204.00
2018-11-04T10:13:00.641Z,208.00
2018-11-04T10:14:00.657Z,212.00
2018-11-04T10:15:00.619Z,212.00
2018-11-04T10:16:00.644Z,216.00
2018-11-04T10:17:00.605Z,216.00
2018-11-04T10:18:00.584Z,216.00
2018-11-04T10:19:00.658Z,220.00
2018-11-04T10:20:00.984Z,228.00
2018-11-04T10:21:00.955Z,228.00
2018-11-04T10:22:00.569Z,220.00
2018-11-04T10:23:00.564Z,216.00
2018-11-04T10:24:00.518Z,212.00
2018-11-04T10:25:00.541Z,204.00
2018-11-04T10:26:00.493Z,196.00
2018-11-04T10:27:00.484Z,192.00
2018-11-04T10:28:00.507Z,192.00
2018-11-04T10:29:00.465Z,196.00
2018-11-04T10:30:00.482Z,196.00
2018-11-04T10:31:00.438Z,196.00
2018-11-04T10:32:00.428Z,204.00
2018-11-04T10:33:00.417Z,208.00
2018-11-04T10:34:00.404Z,208.00
2018-11-04T10:35:00.419Z,216.00
2018-11-04T10:36:00.386Z,220.00
2018-11-04T10:37:00.396Z,220.00
2018-11-04T10:38:00.396Z,216.00
2018-11-04T10:39:00.352Z,212.00
2018-11-04T10:40:00.338Z,208.00
2018-11-04T10:41:00.326Z,200.00
2018-11-04T10:42:00.317Z,196.00
2018-11-04T10:43:00.328Z,192.00
2018-11-04T10:44:00.294Z,196.00
2018-11-04T10:45:00.308Z,204.00
2018-11-04T10:46:00.270Z,204.00
2018-11-04T10:47:00.260Z,200.00
2018-11-04T10:48:00.248Z,204.00
2018-11-04T10:49:00.271Z,208.00
2018-11-04T10:50:00.318Z,208.00
2018-11-04T10:51:00.216Z,204.00
2018-11-04T10:52:00.205Z,204.00
2018-11-04T10:53:00.191Z,208.00
2018-11-04T10:54:00.208Z,204.00
2018-11-04T10:55:00.170Z,200.00
2018-11-04T10:56:00.159Z,196.00
2018-11-04T10:57:00.171Z,204.00
2018-11-04T10:58:00.138Z,212.00
2018-11-04T10:59:00.203Z,212.00
2018-11-04T11:00:00.140Z,216.00
2018-11-04T11:01:00.109Z,220.00
2018-11-04T11:02:00.092Z,224.00
2018-11-04T11:03:00.106Z,220.00
2018-11-04T11:04:00.070Z,220.00
2018-11-04T11:05:00.060Z,224.00
2018-11-04T11:06:00.082Z,232.00
2018-11-04T11:07:00.130Z,240.00
2018-11-04T11:08:00.026Z,244.00
2018-11-04T11:09:00.016Z,240.00
2018-11-04T11:10:00.002Z,232.00
2018-11-04T11:11:00.116Z,232.00
2018-11-04T11:11:59.984Z,240.00
2018-11-04T11:12:59.968Z,244.00
2018-11-04T11:13:59.970Z,244.00
2018-11-04T11:14:59.947Z,248.00
2018-11-04T11:15:59.967Z,260.00
2018-11-04T11:16:59.925Z,264.00
2018-11-04T11:17:59.914Z,264.00
2018-11-04T11:18:59.901Z,260.00
2018-11-04T11:19:59.915Z,260.00
2018-11-04T11:20:59.880Z,268.00
2018-11-04T11:21:59.893Z,264.00
2018-11-04T11:23:00.037Z,264.00
2018-11-04T11:23:59.845Z,268.00
2018-11-04T11:24:59.835Z,276.00
2018-11-04T11:25:59.823Z,284.00
2018-11-04T11:26:59.841Z,288.00
2018-11-04T11:27:59.801Z,292.00
2018-11-04T11:28:59.789Z,296.00
2018-11-04T11:29:59.820Z,308.00
2018-11-04T11:30:59.771Z,304.00
2018-11-04T11:31:59.782Z,300.00
2018-11-04T11:32:59.772Z,304.00
2018-11-04T11:33:59.734Z,300.00
2018-11-04T11:34:59.724Z,296.00
2018-11-04T11:35:59.712Z,300.00
2018-11-04T11:36:59.701Z,288.00
2018-11-04T11:37:59.835Z,288.00
2018-11-04T11:38:59.681Z,284.00
2018-11-04T11:39:59.669Z,284.00
2018-11-04T11:40:59.657Z,272.00
2018-11-04T11:41:59.646Z,264.00
2018-11-04T11:42:59.659Z,264.00
2018-11-04T11:43:59.624Z,268.00
2018-11-04T11:44:59.689Z,276.00
2018-11-04T11:45:59.626Z,280.00
2018-11-04T11:46:59.590Z,276.00
2018-11-04T11:47:59.602Z,272.00
2018-11-04T11:48:59.568Z,264.00
2018-11-04T11:49:59.591Z,260.00
2018-11-04T11:50:59.546Z,264.00
2018-11-04T11:51:59.534Z,268.00
2018-11-04T11:52:59.528Z,276.00
2018-11-04T11:53:59.513Z,284.00
2018-11-04T11:54:59.533Z,284.00
2018-11-04T11:55:59.488Z,284.00
2018-11-04T11:56:59.477Z,288.00
2018-11-04T11:57:59.493Z,292.00
2018-11-04T11:58:59.454Z,292.00
2018-11-04T11:59:59.444Z,300.00
2018-11-04T12:00:59.433Z,312.00
2018-11-04T12:01:59.495Z,312.00
2018-11-04T12:02:59.451Z,296.00
2018-11-04T12:03:59.403Z,292.00
2018-11-04T12:04:59.391Z,304.00
2018-11-04T12:05:59.377Z,324.00
2018-11-04T12:06:59.365Z,320.00
2018-11-04T12:07:59.379Z,308.00
2018-11-04T12:08:59.346Z,304.00
2018-11-04T12:09:59.332Z,300.00
2018-11-04T12:10:59.350Z,304.00
2018-11-04T12:11:59.309Z,300.00
2018-11-04T12:12:59.298Z,292.00
2018-11-04T12:13:59.289Z,284.00
2018-11-04T12:14:59.277Z,272.00
2018-11-04T12:15:59.289Z,268.00
2018-11-04T12:16:59.254Z,272.00
2018-11-04T12:17:59.246Z,276.00
2018-11-04T12:18:59.255Z,284.00
2018-11-04T12:19:59.220Z,284.00
2018-11-04T12:20:59.210Z,284.00
2018-11-04T12:21:59.223Z,284.00
2018-11-04T12:22:59.189Z,280.00
2018-11-04T12:23:59.175Z,276.00
2018-11-04T12:24:59.164Z,276.00
2018-11-04T12:25:59.178Z,280.00
2018-11-04T12:26:59.141Z,284.00
2018-11-04T12:27:59.135Z,296.00
2018-11-04T12:28:59.125Z,296.00
2018-11-04T12:29:59.124Z,292.00
2018-11-04T12:30:59.096Z,288.00
2018-11-04T12:31:59.089Z,288.00
2018-11-04T12:32:59.075Z,284.00
2018-11-04T12:33:59.088Z,284.00
2018-11-04T12:34:59.092Z,284.00
2018-11-04T12:35:59.042Z,284.00
2018-11-04T12:36:59.033Z,288.00
2018-11-04T12:37:59.045Z,296.00
2018-11-04T12:38:59.008Z,288.00
2018-11-04T12:39:59.034Z,288.00
2018-11-04T12:40:58.984Z,284.00
2018-11-04T12:41:58.975Z,284.00
2018-11-04T12:42:58.963Z,284.00
2018-11-04T12:43:58.953Z,284.00
2018-11-04T12:44:58.973Z,284.00
2018-11-04T12:45:58.930Z,288.00
2018-11-04T12:46:58.917Z,288.00
2018-11-04T12:47:58.908Z,292.00
2018-11-04T12:48:58.895Z,292.00
2018-11-04T12:49:58.912Z,292.00
2018-11-04T12:50:58.874Z,300.00
2018-11-04T12:51:58.863Z,296.00
2018-11-04T12:52:58.851Z,300.00
2018-11-04T12:53:58.865Z,312.00
2018-11-04T12:54:58.830Z,300.00
2018-11-04T12:55:58.817Z,296.00